Time;durP1;ratioP1;P1;durP2;ratioP2;P2;SDS_P1;SDS_P2;PMS_P1;PMS_P2;Temp;Humidity;BMP_temperature;BMP_pressure;BME280_temperature;BME280_humidity;BME280_pressure;Samples;Min_cycle;Max_cycle;Signal;HPM_P1;HPM_P2
2022/01/11 00:00:51;;;;;;;31.40;16.30;;;-1.10;99.90;;;;;;5028474;28;20190;-79
2022/01/11 00:03:18;;;;;;;33.37;15.97;;;-1.10;99.90;;;;;;5026640;28;20241;-79
2022/01/11 00:08:12;;;;;;;32.13;17.53;;;-1.10;99.90;;;;;;5043930;28;20179;-79
2022/01/11 00:10:49;;;;;;;34.60;16.93;;;-1.00;99.90;;;;;;5042956;28;20189;-79
2022/01/11 00:13:19;;;;;;;36.67;18.17;;;-1.00;99.90;;;;;;5024114;28;20631;-79
2022/01/11 00:15:47;;;;;;;37.07;17.30;;;-0.90;99.90;;;;;;5042148;28;20234;-79
2022/01/11 00:18:13;;;;;;;38.43;18.57;;;-0.90;99.90;;;;;;5041542;28;20191;-79
2022/01/11 00:20:40;;;;;;;42.57;19.20;;;-0.80;99.90;;;;;;5038602;28;20201;-79
2022/01/11 00:25:36;;;;;;;36.50;18.17;;;-0.70;99.90;;;;;;5043660;28;20190;-79
2022/01/11 00:28:04;;;;;;;40.03;19.33;;;-0.70;99.90;;;;;;5024722;28;20187;-79
2022/01/11 00:30:33;;;;;;;33.83;18.60;;;-0.60;99.90;;;;;;5025473;28;20189;-79
2022/01/11 00:33:02;;;;;;;36.07;18.90;;;-0.60;99.90;;;;;;5043669;28;20608;-79
2022/01/11 00:35:39;;;;;;;42.50;20.03;;;-0.50;99.90;;;;;;5026053;28;20190;-79
2022/01/11 00:38:06;;;;;;;42.47;18.23;;;-0.50;99.90;;;;;;5043836;28;20160;-79
2022/01/11 00:40:31;;;;;;;41.07;18.47;;;-0.50;99.90;;;;;;5042654;28;20225;-79
2022/01/11 00:42:59;;;;;;;46.83;19.47;;;-0.40;99.90;;;;;;5036076;28;20215;-79
2022/01/11 00:45:26;;;;;;;39.93;18.83;;;-0.40;99.90;;;;;;5055415;28;20171;-78
2022/01/11 00:47:52;;;;;;;42.50;19.27;;;-0.40;99.90;;;;;;5049102;28;20180;-79
2022/01/11 00:50:18;;;;;;;32.77;15.80;;;-0.30;99.90;;;;;;5048063;28;20198;-79
2022/01/11 00:52:44;;;;;;;45.50;17.37;;;-0.30;99.90;;;;;;5046769;28;20209;-80
2022/01/11 00:55:09;;;;;;;35.67;17.80;;;-0.30;99.90;;;;;;5028677;28;20263;-79
2022/01/11 00:57:35;;;;;;;44.63;17.97;;;-0.30;99.90;;;;;;5046679;28;20186;-79
2022/01/11 01:00:01;;;;;;;43.73;16.50;;;-0.30;99.90;;;;;;5045774;28;20199;-80
2022/01/11 01:02:26;;;;;;;39.83;16.83;;;-0.30;99.90;;;;;;5046662;28;20211;-79
2022/01/11 01:04:52;;;;;;;38.67;16.77;;;-0.30;99.90;;;;;;5045705;28;20653;-80
2022/01/11 01:07:17;;;;;;;42.50;17.53;;;-0.20;99.90;;;;;;5028928;28;20198;-80
2022/01/11 01:09:58;;;;;;;40.13;17.13;;;-0.20;99.90;;;;;;5048869;28;20226;-79
2022/01/11 01:12:24;;;;;;;36.53;17.37;;;-0.20;99.90;;;;;;5045724;28;20210;-80
2022/01/11 01:14:50;;;;;;;33.00;15.67;;;-0.20;99.90;;;;;;5046278;28;20259;-79
2022/01/11 01:17:15;;;;;;;36.37;17.27;;;-0.20;99.90;;;;;;5025642;28;20216;-80
2022/01/11 01:19:41;;;;;;;31.43;16.60;;;-0.20;99.90;;;;;;5022697;28;20273;-79
2022/01/11 01:22:06;;;;;;;36.33;16.23;;;-0.10;99.90;;;;;;5044214;28;20213;-79
2022/01/11 01:24:32;;;;;;;34.83;16.70;;;-0.10;99.90;;;;;;5026057;28;20250;-79
2022/01/11 01:26:57;;;;;;;40.80;17.20;;;-0.10;99.90;;;;;;5043616;28;20184;-79
2022/01/11 01:29:23;;;;;;;47.63;17.83;;;-0.10;99.90;;;;;;5043111;28;20181;-79
2022/01/11 01:31:49;;;;;;;37.57;17.13;;;-0.10;99.90;;;;;;5023953;28;20214;-79
2022/01/11 01:34:14;;;;;;;46.00;17.33;;;-0.10;99.90;;;;;;5041925;28;20648;-80
2022/01/11 01:36:40;;;;;;;39.63;17.17;;;0.00;99.90;;;;;;5026461;28;20190;-79
2022/01/11 01:39:05;;;;;;;38.03;18.10;;;-0.10;99.90;;;;;;5023855;28;20237;-81
2022/01/11 01:41:31;;;;;;;43.57;18.40;;;0.00;99.90;;;;;;5023500;28;20221;-79
2022/01/11 01:44:01;;;;;;;41.10;17.30;;;0.00;99.90;;;;;;5023956;28;20218;-80
2022/01/11 01:46:27;;;;;;;42.90;19.00;;;0.00;99.90;;;;;;5023435;28;20183;-79
2022/01/11 01:48:55;;;;;;;41.50;18.67;;;0.00;99.90;;;;;;5041040;28;20183;-80
2022/01/11 01:51:20;;;;;;;41.23;17.27;;;0.00;99.90;;;;;;5041293;28;20217;-79
2022/01/11 01:53:50;;;;;;;43.90;18.67;;;0.00;99.90;;;;;;5021906;28;20307;-79
2022/01/11 01:56:18;;;;;;;49.17;20.07;;;0.10;99.90;;;;;;5040410;28;20275;-79
2022/01/11 01:58:44;;;;;;;44.73;19.40;;;0.10;99.90;;;;;;5040071;28;20187;-79
2022/01/11 02:01:12;;;;;;;43.00;19.60;;;0.10;99.90;;;;;;5040009;28;20187;-80
2022/01/11 02:03:39;;;;;;;46.87;19.67;;;0.10;99.90;;;;;;5039951;28;20202;-79
2022/01/11 02:06:07;;;;;;;48.10;19.00;;;0.10;99.90;;;;;;5021216;28;20187;-79
2022/01/11 02:08:33;;;;;;;53.37;21.00;;;0.20;99.90;;;;;;5021050;28;20258;-79
2022/01/11 02:10:59;;;;;;;48.03;20.50;;;0.10;99.90;;;;;;5020776;28;20179;-80
2022/01/11 02:13:24;;;;;;;46.07;20.03;;;0.10;99.90;;;;;;5020415;28;20214;-78
2022/01/11 02:15:51;;;;;;;65.00;20.63;;;0.20;99.90;;;;;;5038678;28;20191;-79
2022/01/11 02:18:21;;;;;;;47.93;21.40;;;0.20;99.90;;;;;;5019256;28;20202;-79
2022/01/11 02:20:49;;;;;;;53.87;20.60;;;0.20;99.90;;;;;;5038185;28;20179;-79
2022/01/11 02:23:17;;;;;;;48.70;19.57;;;0.20;99.90;;;;;;5037710;28;20211;-79
2022/01/11 02:25:43;;;;;;;45.47;20.63;;;0.20;99.90;;;;;;5038049;28;20633;-79
2022/01/11 02:28:15;;;;;;;55.90;21.90;;;0.20;99.90;;;;;;5019262;28;20562;-79
2022/01/11 02:30:42;;;;;;;52.13;21.97;;;0.20;99.90;;;;;;5036977;28;20625;-78
2022/01/11 02:33:16;;;;;;;55.77;21.60;;;0.20;99.90;;;;;;5036953;28;20231;-79
2022/01/11 02:35:51;;;;;;;53.53;22.47;;;0.20;99.90;;;;;;5023132;28;20185;-79
2022/01/11 02:38:17;;;;;;;60.10;22.50;;;0.20;99.90;;;;;;5040539;28;20223;-80
2022/01/11 02:40:43;;;;;;;48.37;20.80;;;0.30;99.90;;;;;;5022065;28;20198;-80
2022/01/11 02:43:09;;;;;;;47.00;21.90;;;0.30;99.90;;;;;;5037881;28;20287;-79
2022/01/11 02:45:34;;;;;;;43.93;20.77;;;0.20;99.90;;;;;;5038984;28;20223;-80
2022/01/11 02:48:00;;;;;;;51.27;20.97;;;0.20;99.90;;;;;;5038763;28;20202;-80
2022/01/11 02:50:26;;;;;;;47.57;21.77;;;0.20;99.90;;;;;;5020466;28;20182;-78
2022/01/11 02:52:52;;;;;;;47.23;21.27;;;0.20;99.90;;;;;;5020284;28;20226;-79
2022/01/11 02:55:17;;;;;;;45.97;20.10;;;0.20;99.90;;;;;;5038346;28;20195;-80
2022/01/11 02:57:43;;;;;;;47.40;22.47;;;0.20;99.90;;;;;;5038071;28;20191;-79
2022/01/11 03:00:13;;;;;;;49.13;21.40;;;0.20;99.90;;;;;;5038783;28;20189;-79
2022/01/11 03:02:39;;;;;;;56.77;24.13;;;0.20;99.90;;;;;;5038244;28;20215;-79
2022/01/11 03:05:07;;;;;;;50.87;22.47;;;0.20;99.90;;;;;;5037786;28;20669;-79
2022/01/11 03:07:32;;;;;;;54.23;22.63;;;0.30;99.90;;;;;;5037561;28;20190;-79
2022/01/11 03:10:10;;;;;;;57.50;22.20;;;0.20;99.90;;;;;;5037383;28;20553;-79
2022/01/11 03:12:36;;;;;;;50.13;22.00;;;0.20;99.90;;;;;;5019087;28;20599;-79
2022/01/11 03:15:02;;;;;;;47.23;21.90;;;0.30;99.90;;;;;;5018547;28;20204;-79
2022/01/11 03:17:28;;;;;;;48.07;22.03;;;0.30;99.90;;;;;;5036433;28;20617;-78
2022/01/11 03:19:54;;;;;;;49.17;22.80;;;0.20;99.90;;;;;;5037157;28;20195;-79
2022/01/11 03:22:20;;;;;;;53.50;22.37;;;0.20;99.90;;;;;;5019020;28;20215;-79
2022/01/11 03:24:45;;;;;;;49.90;21.13;;;0.20;99.90;;;;;;5038098;28;20184;-79
2022/01/11 03:27:11;;;;;;;44.60;21.03;;;0.20;99.90;;;;;;5038150;28;20178;-79
2022/01/11 03:29:39;;;;;;;43.83;20.83;;;0.20;99.90;;;;;;5038653;28;20234;-79
2022/01/11 03:32:07;;;;;;;43.03;21.13;;;0.20;99.90;;;;;;5023299;28;20222;-80
2022/01/11 03:34:32;;;;;;;46.83;22.60;;;0.20;99.90;;;;;;5006092;28;20191;-78
2022/01/11 03:36:59;;;;;;;54.90;21.73;;;0.20;99.90;;;;;;5038653;28;20194;-79
2022/01/11 03:39:25;;;;;;;49.67;21.97;;;0.20;99.90;;;;;;5038762;28;20179;-79
2022/01/11 03:41:51;;;;;;;51.43;23.00;;;0.20;99.90;;;;;;5021420;28;20642;-80
2022/01/11 03:44:17;;;;;;;59.23;22.87;;;0.20;99.90;;;;;;5022603;28;20210;-79
2022/01/11 03:46:42;;;;;;;48.90;21.47;;;0.20;99.90;;;;;;5024468;28;20219;-79
2022/01/11 03:49:08;;;;;;;49.33;22.50;;;0.20;99.90;;;;;;5025243;28;20187;-79
2022/01/11 03:51:37;;;;;;;47.53;21.43;;;0.20;99.90;;;;;;5021320;28;20551;-78
2022/01/11 03:54:10;;;;;;;47.80;21.93;;;0.30;99.90;;;;;;5021297;28;20196;-77
2022/01/11 03:56:36;;;;;;;48.33;23.07;;;0.20;99.90;;;;;;5044069;28;20162;-80
2022/01/11 03:59:06;;;;;;;51.27;22.63;;;0.20;99.90;;;;;;5043873;28;20187;-79
2022/01/11 04:01:36;;;;;;;47.40;21.50;;;0.30;99.90;;;;;;5044180;28;20256;-79
2022/01/11 04:04:03;;;;;;;47.10;22.03;;;0.30;99.90;;;;;;5043377;28;20307;-79
2022/01/11 04:06:28;;;;;;;56.30;23.77;;;0.30;99.90;;;;;;5044015;28;20174;-80
2022/01/11 04:08:54;;;;;;;49.00;22.60;;;0.30;99.90;;;;;;5044441;28;20176;-80
2022/01/11 04:11:20;;;;;;;53.27;22.80;;;0.30;99.90;;;;;;5042822;28;20187;-79
2022/01/11 04:13:45;;;;;;;55.77;23.43;;;0.30;99.90;;;;;;5041421;28;20211;-78
2022/01/11 04:16:11;;;;;;;55.63;24.33;;;0.40;99.90;;;;;;5043109;28;20179;-80
2022/01/11 04:18:37;;;;;;;52.67;23.23;;;0.30;99.90;;;;;;5047137;28;20227;-79
2022/01/11 04:21:04;;;;;;;49.10;22.47;;;0.40;99.90;;;;;;5045698;28;20187;-78
2022/01/11 04:23:30;;;;;;;52.33;23.27;;;0.40;99.90;;;;;;5037390;28;20211;-77
2022/01/11 04:25:56;;;;;;;53.70;21.67;;;0.30;99.90;;;;;;5037134;28;20187;-77
2022/01/11 04:28:25;;;;;;;55.77;22.83;;;0.40;99.90;;;;;;5019705;28;20253;-78
2022/01/11 04:30:52;;;;;;;56.57;24.20;;;0.40;99.90;;;;;;5019827;28;20199;-79
2022/01/11 04:33:18;;;;;;;50.43;23.50;;;0.40;99.90;;;;;;5037170;28;20221;-78
2022/01/11 04:35:48;;;;;;;51.50;24.67;;;0.40;99.90;;;;;;5038377;28;20235;-79
2022/01/11 04:38:16;;;;;;;58.07;25.83;;;0.40;99.90;;;;;;5039147;28;20195;-79
2022/01/11 04:40:42;;;;;;;53.20;24.10;;;0.40;99.90;;;;;;5039365;28;20188;-78
2022/01/11 04:43:08;;;;;;;57.40;24.57;;;0.40;99.90;;;;;;5021451;28;20219;-79
2022/01/11 04:45:33;;;;;;;58.17;23.70;;;0.40;99.90;;;;;;5038965;28;20183;-78
2022/01/11 04:47:59;;;;;;;50.23;23.10;;;0.40;99.90;;;;;;5039748;28;20188;-79
2022/01/11 04:50:27;;;;;;;54.13;23.47;;;0.40;99.90;;;;;;5039103;28;20195;-79
2022/01/11 04:52:52;;;;;;;49.00;24.60;;;0.40;99.90;;;;;;5039647;28;20644;-79
2022/01/11 04:55:18;;;;;;;58.40;24.00;;;0.40;99.90;;;;;;5039240;28;20188;-79
2022/01/11 04:57:45;;;;;;;51.37;23.13;;;0.40;99.90;;;;;;5039634;28;20290;-79
2022/01/11 05:00:13;;;;;;;50.93;22.73;;;0.30;99.90;;;;;;5039139;28;20198;-78
2022/01/11 05:02:39;;;;;;;61.17;25.10;;;0.40;99.90;;;;;;5021915;28;20224;-79
2022/01/11 05:05:05;;;;;;;54.77;22.73;;;0.40;99.90;;;;;;5039166;28;20217;-78
2022/01/11 05:07:30;;;;;;;61.87;23.37;;;0.40;99.90;;;;;;5038885;28;20254;-78
2022/01/11 05:09:56;;;;;;;55.10;22.77;;;0.40;99.90;;;;;;5021226;28;20653;-79
2022/01/11 05:12:22;;;;;;;53.37;23.10;;;0.40;99.90;;;;;;5038813;28;20211;-79
2022/01/11 05:14:48;;;;;;;53.17;22.20;;;0.40;99.90;;;;;;5021060;28;20205;-79
2022/01/11 05:17:13;;;;;;;49.37;20.70;;;0.40;99.90;;;;;;5024552;28;20242;-79
2022/01/11 05:19:39;;;;;;;54.73;23.07;;;0.40;99.90;;;;;;5021133;28;20659;-79
2022/01/11 05:22:05;;;;;;;51.43;22.70;;;0.40;99.90;;;;;;5025057;28;20570;-79
2022/01/11 05:24:30;;;;;;;49.00;21.83;;;0.40;99.90;;;;;;5044957;28;20186;-78
2022/01/11 05:26:56;;;;;;;58.13;23.10;;;0.40;99.90;;;;;;5027655;28;20631;-79
2022/01/11 05:29:21;;;;;;;51.87;22.90;;;0.40;99.90;;;;;;5024343;28;20179;-79
2022/01/11 05:31:47;;;;;;;56.87;22.07;;;0.40;99.90;;;;;;5043698;28;20194;-79
2022/01/11 05:34:12;;;;;;;63.60;21.53;;;0.40;99.90;;;;;;5023130;28;20214;-79
2022/01/11 05:36:38;;;;;;;72.93;20.70;;;0.40;99.90;;;;;;5022677;28;20227;-79
2022/01/11 05:39:04;;;;;;;52.93;21.67;;;0.40;99.90;;;;;;5041247;28;20709;-79
2022/01/11 05:41:31;;;;;;;52.73;22.10;;;0.30;99.90;;;;;;5041540;28;20246;-78
2022/01/11 05:43:56;;;;;;;60.73;21.57;;;0.40;99.90;;;;;;5022177;28;20257;-79
2022/01/11 05:46:22;;;;;;;55.87;21.23;;;0.30;99.90;;;;;;5021882;28;20194;-79
2022/01/11 05:48:47;;;;;;;49.50;20.83;;;0.30;99.90;;;;;;5022742;28;20225;-78
2022/01/11 05:51:14;;;;;;;47.53;22.10;;;0.30;99.90;;;;;;5022248;28;20281;-78
2022/01/11 05:53:40;;;;;;;51.83;21.43;;;0.30;99.90;;;;;;5040228;28;20210;-78
2022/01/11 05:56:06;;;;;;;50.93;21.03;;;0.30;99.90;;;;;;5022081;28;20274;-79
2022/01/11 05:58:31;;;;;;;44.23;19.57;;;0.30;99.90;;;;;;5020643;28;20282;-79
2022/01/11 06:00:57;;;;;;;49.90;20.37;;;0.30;99.90;;;;;;5021130;28;20198;-79
2022/01/11 06:03:23;;;;;;;51.20;21.63;;;0.30;99.90;;;;;;5039148;28;20218;-78
2022/01/11 06:05:48;;;;;;;51.80;22.07;;;0.30;99.90;;;;;;5021836;28;20187;-79
2022/01/11 06:08:16;;;;;;;51.00;21.07;;;0.30;99.90;;;;;;5038128;28;20222;-79
2022/01/11 06:10:43;;;;;;;54.37;21.73;;;0.30;99.90;;;;;;5037183;28;20176;-79
2022/01/11 06:13:09;;;;;;;50.63;21.57;;;0.30;99.90;;;;;;5036630;28;20274;-78
2022/01/11 06:15:35;;;;;;;48.10;20.53;;;0.30;99.90;;;;;;5036874;28;20191;-78
2022/01/11 06:18:01;;;;;;;50.73;21.27;;;0.30;99.90;;;;;;5036476;28;20273;-78
2022/01/11 06:20:26;;;;;;;51.13;21.47;;;0.20;99.90;;;;;;5038471;28;20214;-79
2022/01/11 06:22:53;;;;;;;41.73;18.77;;;0.20;99.90;;;;;;5036704;28;20218;-79
2022/01/11 06:25:19;;;;;;;42.70;19.10;;;0.20;99.90;;;;;;5020117;28;20184;-79
2022/01/11 06:27:44;;;;;;;44.67;20.10;;;0.30;99.90;;;;;;5018710;28;20187;-78
2022/01/11 06:30:10;;;;;;;43.93;20.13;;;0.20;99.90;;;;;;5017998;28;20187;-79
2022/01/11 06:32:37;;;;;;;41.73;18.70;;;0.20;99.90;;;;;;5018639;28;20255;-78
2022/01/11 06:35:03;;;;;;;42.33;19.03;;;0.20;99.90;;;;;;5018808;28;20192;-79
2022/01/11 06:37:29;;;;;;;38.27;17.53;;;0.20;99.90;;;;;;5037597;28;20187;-79
2022/01/11 06:39:55;;;;;;;47.47;20.17;;;0.20;99.90;;;;;;5038141;28;20268;-79
2022/01/11 06:42:21;;;;;;;40.00;20.00;;;0.20;99.90;;;;;;5019386;28;20239;-79
2022/01/11 06:44:46;;;;;;;43.43;20.03;;;0.20;99.90;;;;;;5018769;28;20646;-79
2022/01/11 06:47:12;;;;;;;46.40;19.83;;;0.20;99.90;;;;;;5018805;28;20191;-79
2022/01/11 06:49:40;;;;;;;46.17;20.73;;;0.20;99.90;;;;;;5035893;28;20179;-79
2022/01/11 06:52:06;;;;;;;43.30;21.00;;;0.20;99.90;;;;;;5035777;28;20267;-79
2022/01/11 06:54:32;;;;;;;40.33;19.27;;;0.10;99.90;;;;;;5017665;28;20180;-77
2022/01/11 06:56:57;;;;;;;42.20;19.87;;;0.10;99.90;;;;;;5034770;28;20578;-78
2022/01/11 06:59:23;;;;;;;49.03;21.40;;;0.20;99.90;;;;;;5034343;28;20172;-78
2022/01/11 07:01:49;;;;;;;39.53;19.73;;;0.10;99.90;;;;;;5015773;28;20704;-78
2022/01/11 07:04:15;;;;;;;47.00;20.77;;;0.10;99.90;;;;;;5036403;28;20342;-78
2022/01/11 07:06:41;;;;;;;48.57;21.77;;;0.10;99.90;;;;;;5036519;28;20229;-80
2022/01/11 07:09:07;;;;;;;41.90;19.87;;;0.10;99.90;;;;;;5020771;28;20672;-81
2022/01/11 07:11:32;;;;;;;53.93;21.40;;;0.10;99.90;;;;;;5019206;28;20186;-80
2022/01/11 07:13:58;;;;;;;45.23;19.40;;;0.10;99.90;;;;;;5037983;28;20586;-80
2022/01/11 07:16:23;;;;;;;43.47;21.03;;;0.10;99.90;;;;;;5021216;28;20187;-81
2022/01/11 07:18:49;;;;;;;47.40;21.83;;;0.10;99.90;;;;;;5022898;28;20589;-81
2022/01/11 07:21:15;;;;;;;46.07;21.43;;;0.10;99.90;;;;;;5023191;28;20211;-80
2022/01/11 07:23:40;;;;;;;46.17;21.60;;;0.10;99.90;;;;;;5043392;28;20214;-80
2022/01/11 07:26:09;;;;;;;46.30;22.23;;;0.00;99.90;;;;;;5032725;28;20175;-80
2022/01/11 07:28:35;;;;;;;47.13;21.60;;;0.10;99.90;;;;;;5028373;28;20594;-80
2022/01/11 07:31:01;;;;;;;48.83;22.73;;;0.10;99.90;;;;;;5046673;28;20180;-80
2022/01/11 07:33:26;;;;;;;51.37;23.73;;;0.10;99.90;;;;;;5044781;28;20256;-80
2022/01/11 07:35:52;;;;;;;47.27;23.00;;;0.10;99.90;;;;;;5027227;28;20558;-80
2022/01/11 07:38:17;;;;;;;49.83;21.90;;;0.10;99.90;;;;;;5027402;28;20216;-80
2022/01/11 07:40:43;;;;;;;49.20;22.27;;;0.10;99.90;;;;;;5045249;28;20190;-80
2022/01/11 07:43:08;;;;;;;51.17;21.33;;;0.20;99.90;;;;;;5041114;28;20224;-80
2022/01/11 07:45:34;;;;;;;54.73;25.03;;;0.10;99.90;;;;;;5023618;28;20194;-80
2022/01/11 07:47:59;;;;;;;47.23;22.97;;;0.10;99.90;;;;;;5041185;28;20173;-80
2022/01/11 07:50:25;;;;;;;50.53;22.13;;;0.20;99.90;;;;;;5040375;28;20261;-79
2022/01/11 07:52:51;;;;;;;44.90;21.53;;;0.20;99.90;;;;;;5040243;28;20217;-80
2022/01/11 07:55:18;;;;;;;46.30;21.97;;;0.10;99.90;;;;;;5039858;28;20556;-80
2022/01/11 07:57:44;;;;;;;44.27;22.20;;;0.20;99.90;;;;;;5023195;28;20192;-80
2022/01/11 08:00:11;;;;;;;46.33;22.33;;;0.10;99.90;;;;;;5041166;28;20183;-80
2022/01/11 08:02:36;;;;;;;55.40;22.97;;;0.20;99.90;;;;;;5022403;28;20401;-79
2022/01/11 08:05:03;;;;;;;52.50;23.33;;;0.20;99.90;;;;;;5041159;28;20263;-80
2022/01/11 08:07:30;;;;;;;49.20;22.90;;;0.20;99.90;;;;;;5022361;28;20292;-80
2022/01/11 08:09:56;;;;;;;54.63;23.77;;;0.20;99.90;;;;;;5022475;28;20270;-80
2022/01/11 08:12:21;;;;;;;53.27;24.07;;;0.20;99.90;;;;;;5021938;28;20249;-80
2022/01/11 08:14:48;;;;;;;47.83;22.93;;;0.20;99.90;;;;;;5037369;28;20202;-80
2022/01/11 08:17:14;;;;;;;53.17;23.03;;;0.20;99.90;;;;;;5047591;28;20195;-79
2022/01/11 08:19:40;;;;;;;46.70;22.17;;;0.20;99.90;;;;;;5047670;28;20244;-79
2022/01/11 08:22:06;;;;;;;48.03;22.17;;;0.20;99.90;;;;;;5064458;28;20187;-79
2022/01/11 08:24:32;;;;;;;48.10;23.27;;;0.20;99.90;;;;;;5047173;28;20179;-79
2022/01/11 08:26:58;;;;;;;47.17;23.33;;;0.20;99.90;;;;;;5047292;28;20224;-79
2022/01/11 08:29:24;;;;;;;56.83;24.37;;;0.20;99.90;;;;;;5046886;28;20241;-80
2022/01/11 08:31:50;;;;;;;46.33;22.73;;;0.20;99.90;;;;;;5036424;28;20203;-80
2022/01/11 08:34:17;;;;;;;60.23;23.00;;;0.20;99.90;;;;;;5053653;28;20181;-80
2022/01/11 08:36:44;;;;;;;47.93;22.83;;;0.20;99.90;;;;;;5058994;28;20182;-80
2022/01/11 08:39:11;;;;;;;48.17;22.67;;;0.20;99.90;;;;;;5040126;28;20192;-80
2022/01/11 08:41:38;;;;;;;52.27;23.90;;;0.20;99.90;;;;;;5004172;28;20259;-80
2022/01/11 08:44:05;;;;;;;49.80;23.20;;;0.20;99.90;;;;;;5021361;28;20208;-80
2022/01/11 08:46:31;;;;;;;51.20;23.57;;;0.30;99.90;;;;;;5021975;28;20180;-80
2022/01/11 08:48:56;;;;;;;54.67;24.70;;;0.20;99.90;;;;;;5004527;28;20694;-80
2022/01/11 08:51:24;;;;;;;56.20;24.27;;;0.30;99.90;;;;;;5023332;28;20553;-80
2022/01/11 08:53:50;;;;;;;48.33;23.23;;;0.30;99.90;;;;;;5037682;28;20739;-80
2022/01/11 08:56:17;;;;;;;53.00;23.67;;;0.30;99.90;;;;;;5020799;28;20185;-80
2022/01/11 08:58:44;;;;;;;45.63;22.87;;;0.30;99.90;;;;;;5021485;28;20187;-80
2022/01/11 09:01:10;;;;;;;47.77;22.37;;;0.30;99.90;;;;;;5040236;28;20221;-80
2022/01/11 09:03:35;;;;;;;54.87;23.90;;;0.30;99.90;;;;;;5021519;28;20220;-80
2022/01/11 09:06:03;;;;;;;47.87;23.90;;;0.30;99.90;;;;;;5021601;28;20241;-80
2022/01/11 09:08:29;;;;;;;53.70;24.20;;;0.30;99.90;;;;;;5020583;28;20609;-80
2022/01/11 09:10:54;;;;;;;50.63;24.00;;;0.40;99.90;;;;;;5038976;28;20184;-80
2022/01/11 09:13:20;;;;;;;48.13;23.53;;;0.40;99.90;;;;;;5019018;28;20577;-80
2022/01/11 09:15:46;;;;;;;55.00;24.97;;;0.40;99.90;;;;;;5037074;28;20183;-80
2022/01/11 09:18:12;;;;;;;54.00;24.23;;;0.40;99.90;;;;;;5020252;28;20218;-80
2022/01/11 09:20:38;;;;;;;53.63;25.67;;;0.40;99.90;;;;;;5040221;28;20271;-81
2022/01/11 09:23:04;;;;;;;54.57;25.83;;;0.40;99.90;;;;;;5039104;28;20254;-80
2022/01/11 09:25:30;;;;;;;47.83;24.10;;;0.40;99.90;;;;;;5038173;28;20187;-80
2022/01/11 09:27:55;;;;;;;57.63;26.83;;;0.40;99.90;;;;;;5019164;28;20278;-79
2022/01/11 09:30:21;;;;;;;55.77;25.37;;;0.40;99.90;;;;;;5037211;28;20283;-80
2022/01/11 09:32:47;;;;;;;55.07;24.70;;;0.40;99.90;;;;;;5024401;28;20283;-81
2022/01/11 09:35:14;;;;;;;66.53;28.27;;;0.40;99.90;;;;;;5020015;28;20191;-79
2022/01/11 09:37:40;;;;;;;51.70;25.53;;;0.50;99.90;;;;;;5036989;28;20267;-79
2022/01/11 09:40:08;;;;;;;55.77;26.43;;;0.50;99.90;;;;;;5036339;28;20281;-79
2022/01/11 09:42:34;;;;;;;58.57;27.30;;;0.50;99.90;;;;;;5019090;28;20226;-81
2022/01/11 09:45:01;;;;;;;55.97;27.53;;;0.50;99.90;;;;;;5038520;28;20198;-81
2022/01/11 09:47:27;;;;;;;60.33;29.43;;;0.60;99.90;;;;;;5018241;28;20214;-81
2022/01/11 09:49:53;;;;;;;62.70;27.93;;;0.60;99.90;;;;;;5037343;28;20598;-78
2022/01/11 09:52:19;;;;;;;60.20;28.03;;;0.60;99.90;;;;;;5017956;28;20228;-80
2022/01/11 09:54:47;;;;;;;59.50;27.67;;;0.70;99.90;;;;;;5037239;28;20270;-79
2022/01/11 09:57:13;;;;;;;62.40;28.17;;;0.70;99.90;;;;;;5035837;28;20195;-78
2022/01/11 09:59:39;;;;;;;64.50;28.80;;;0.80;99.90;;;;;;5017458;28;20258;-78
2022/01/11 10:02:05;;;;;;;59.60;27.10;;;0.80;99.90;;;;;;5035144;28;20210;-78
2022/01/11 10:04:34;;;;;;;60.47;28.67;;;0.80;99.90;;;;;;5018154;28;20180;-77
2022/01/11 10:07:02;;;;;;;49.90;25.90;;;0.90;99.90;;;;;;5038802;28;20179;-80
2022/01/11 10:09:30;;;;;;;60.93;28.67;;;0.90;99.90;;;;;;5020768;28;20191;-80
2022/01/11 10:11:58;;;;;;;61.80;29.43;;;1.00;99.90;;;;;;5019150;28;20332;-80
2022/01/11 10:14:27;;;;;;;60.03;28.17;;;1.10;99.90;;;;;;5037097;28;20191;-80
2022/01/11 10:17:06;;;;;;;55.40;26.87;;;1.10;99.90;;;;;;5020083;28;20191;-80
2022/01/11 10:19:32;;;;;;;50.07;24.73;;;1.10;99.90;;;;;;5040641;28;20206;-79
2022/01/11 10:22:03;;;;;;;57.47;26.67;;;1.10;99.90;;;;;;5036961;28;20191;-79
2022/01/11 10:24:35;;;;;;;55.53;25.40;;;1.10;99.90;;;;;;5037498;28;20195;-80
2022/01/11 10:27:04;;;;;;;55.13;24.93;;;1.20;99.90;;;;;;5020767;28;20187;-80
2022/01/11 10:29:45;;;;;;;47.87;23.67;;;1.20;99.90;;;;;;5020983;28;20187;-80
2022/01/11 10:32:31;;;;;;;48.03;23.97;;;1.20;99.90;;;;;;5043180;28;20674;-80
2022/01/11 10:35:05;;;;;;;47.13;23.73;;;1.30;99.90;;;;;;5047700;28;20226;-80
2022/01/11 10:37:32;;;;;;;52.17;24.20;;;1.30;99.90;;;;;;5044797;28;20171;-79
2022/01/11 10:40:08;;;;;;;55.40;25.70;;;1.40;99.90;;;;;;5037635;28;20198;-80
2022/01/11 10:42:38;;;;;;;54.07;25.30;;;1.40;99.90;;;;;;5036479;28;20238;-80
2022/01/11 10:45:10;;;;;;;59.90;27.87;;;1.40;99.90;;;;;;5017661;28;20192;-80
2022/01/11 10:47:40;;;;;;;49.77;25.33;;;1.40;99.90;;;;;;5017960;28;20204;-80
2022/01/11 10:50:19;;;;;;;54.20;26.07;;;1.50;99.90;;;;;;5018814;28;20188;-81
2022/01/11 10:52:46;;;;;;;57.00;25.33;;;1.50;99.90;;;;;;5036384;28;20199;-81
2022/01/11 10:55:18;;;;;;;53.83;25.27;;;1.60;99.90;;;;;;5019708;28;20192;-82
2022/01/11 10:57:49;;;;;;;49.87;24.57;;;1.60;99.90;;;;;;5037338;28;20180;-81
2022/01/11 11:00:22;;;;;;;47.70;22.80;;;1.70;99.90;;;;;;5018331;28;20180;-80
2022/01/11 11:03:03;;;;;;;44.97;22.57;;;1.70;99.90;;;;;;5036119;28;20216;-80
2022/01/11 11:05:34;;;;;;;44.33;23.43;;;1.80;99.90;;;;;;5019081;28;20272;-80
2022/01/11 11:08:03;;;;;;;43.43;23.17;;;1.80;99.90;;;;;;5036083;28;20278;-80
2022/01/11 11:10:40;;;;;;;45.97;24.00;;;1.80;99.90;;;;;;5035824;28;20192;-80
2022/01/11 11:13:08;;;;;;;51.97;26.77;;;1.90;99.90;;;;;;5035589;28;20590;-80
2022/01/11 11:15:39;;;;;;;51.77;25.70;;;1.90;99.90;;;;;;5035774;28;20230;-80
2022/01/11 11:18:07;;;;;;;50.93;24.73;;;2.00;99.90;;;;;;5017800;28;20184;-80
2022/01/11 11:20:35;;;;;;;49.63;24.10;;;2.00;99.90;;;;;;5017861;28;20282;-79
2022/01/11 11:23:02;;;;;;;43.80;21.17;;;2.10;99.90;;;;;;5017645;28;20270;-80
2022/01/11 11:25:28;;;;;;;41.40;21.90;;;2.10;99.90;;;;;;5035266;28;20326;-80
2022/01/11 11:27:53;;;;;;;41.27;21.27;;;2.20;99.90;;;;;;5017806;28;20200;-80
2022/01/11 11:30:20;;;;;;;37.37;20.77;;;2.20;99.90;;;;;;5035016;28;20179;-79
2022/01/11 11:32:46;;;;;;;41.50;20.37;;;2.30;99.90;;;;;;5035867;28;20226;-80
2022/01/11 11:35:14;;;;;;;35.70;19.73;;;2.30;99.90;;;;;;5018081;28;20184;-80
2022/01/11 11:37:41;;;;;;;37.60;21.40;;;2.40;99.90;;;;;;5035674;28;20749;-80
2022/01/11 11:40:13;;;;;;;33.13;19.40;;;2.40;99.90;;;;;;5017622;28;20254;-80
2022/01/11 11:42:39;;;;;;;35.27;20.63;;;2.40;99.90;;;;;;5037411;28;20215;-80
2022/01/11 11:45:20;;;;;;;33.23;19.40;;;2.50;99.90;;;;;;5035792;28;20215;-80
2022/01/11 11:47:46;;;;;;;35.10;19.77;;;2.50;99.90;;;;;;5016830;28;20173;-80
2022/01/11 11:50:18;;;;;;;32.07;19.57;;;2.60;99.90;;;;;;5016825;28;20540;-80
2022/01/11 11:52:47;;;;;;;30.97;18.50;;;2.60;99.90;;;;;;5017032;28;20265;-80
2022/01/11 11:55:25;;;;;;;30.60;17.33;;;2.60;99.90;;;;;;5035246;28;20172;-79
2022/01/11 11:58:00;;;;;;;30.57;17.03;;;2.70;99.90;;;;;;5034489;28;20183;-80
2022/01/11 12:00:26;;;;;;;30.43;18.43;;;2.70;99.90;;;;;;5016703;28;20180;-80
2022/01/11 12:03:17;;;;;;;28.13;17.20;;;2.80;99.90;;;;;;5034708;28;20291;-80
2022/01/11 12:05:46;;;;;;;34.23;17.73;;;2.90;99.90;;;;;;5034601;28;20196;-79
2022/01/11 12:08:36;;;;;;;28.00;17.90;;;2.90;99.90;;;;;;5034283;28;20184;-80
2022/01/11 12:11:20;;;;;;;29.27;16.77;;;3.00;99.90;;;;;;5016698;28;20547;-80
2022/01/11 12:13:50;;;;;;;27.53;16.03;;;3.00;99.90;;;;;;5016308;28;20215;-80
2022/01/11 12:16:30;;;;;;;26.40;15.67;;;3.10;99.90;;;;;;5017772;28;20267;-80
2022/01/11 12:19:02;;;;;;;25.87;15.37;;;3.10;99.90;;;;;;5019588;28;20596;-80
2022/01/11 12:22:02;;;;;;;29.97;17.03;;;3.20;99.90;;;;;;5019920;28;20227;-80
2022/01/11 12:24:44;;;;;;;24.07;15.10;;;3.20;99.90;;;;;;5019596;28;20276;-79
2022/01/11 12:27:10;;;;;;;26.83;15.30;;;3.30;99.90;;;;;;5036973;28;20222;-80
2022/01/11 12:29:38;;;;;;;24.93;15.40;;;3.30;99.90;;;;;;5018752;28;20184;-79
2022/01/11 12:32:07;;;;;;;24.93;16.13;;;3.40;99.90;;;;;;5036200;28;20207;-79
2022/01/11 12:34:50;;;;;;;26.30;16.00;;;3.40;99.90;;;;;;5037332;28;20188;-79
2022/01/11 12:37:21;;;;;;;27.83;16.03;;;3.50;99.90;;;;;;5021153;28;20192;-80
2022/01/11 12:40:20;;;;;;;23.17;15.73;;;3.50;99.90;;;;;;5038943;28;20180;-79
2022/01/11 12:42:51;;;;;;;25.47;15.37;;;3.50;99.90;;;;;;5019838;28;20625;-80